createdAt,value
2019-03-04T00:01:09.628Z,7.67
2019-03-04T00:03:10.493Z,6.70
2019-03-04T00:05:11.328Z,8.27
2019-03-04T00:07:12.185Z,8.47
2019-03-04T00:09:13.021Z,7.37
2019-03-04T00:11:14.155Z,5.83
2019-03-04T00:13:15.134Z,6.07
2019-03-04T00:15:16.328Z,6.47
2019-03-04T00:17:17.164Z,8.00
2019-03-04T00:19:18.025Z,10.00
2019-03-04T00:21:18.876Z,8.90
2019-03-04T00:23:20.052Z,6.77
2019-03-04T00:25:20.913Z,10.43
2019-03-04T00:27:21.753Z,8.57
2019-03-04T00:29:22.581Z,6.23
2019-03-04T00:31:23.425Z,7.70
2019-03-04T00:33:24.268Z,6.60
2019-03-04T00:35:25.112Z,9.97
2019-03-04T00:37:25.936Z,6.00
2019-03-04T00:39:26.829Z,5.43
2019-03-04T00:41:27.826Z,7.63
2019-03-04T00:43:28.653Z,6.30
2019-03-04T00:45:29.491Z,8.60
2019-03-04T00:47:30.344Z,6.10
2019-03-04T00:49:31.193Z,6.83
2019-03-04T00:51:32.024Z,6.27
2019-03-04T00:53:32.875Z,6.17
2019-03-04T00:55:33.712Z,8.23
2019-03-04T00:57:34.543Z,6.30
2019-03-04T00:59:35.398Z,5.73
2019-03-04T01:01:36.236Z,8.43
2019-03-04T01:03:37.333Z,5.53
2019-03-04T01:05:38.192Z,7.17
2019-03-04T01:07:39.030Z,6.53
2019-03-04T01:09:39.885Z,6.47
2019-03-04T01:11:40.736Z,4.60
2019-03-04T01:13:41.582Z,7.23
2019-03-04T01:15:42.432Z,7.10
2019-03-04T01:17:43.264Z,5.37
2019-03-04T01:19:44.101Z,4.80
2019-03-04T01:21:44.957Z,7.07
2019-03-04T01:23:45.800Z,7.33
2019-03-04T01:25:46.652Z,5.60
2019-03-04T01:27:47.491Z,8.03
2019-03-04T01:29:48.310Z,5.20
2019-03-04T01:31:49.164Z,6.50
2019-03-04T01:33:49.993Z,6.93
2019-03-04T01:35:50.852Z,5.33
2019-03-04T01:37:51.684Z,6.20
2019-03-04T01:39:52.768Z,6.60
2019-03-04T01:41:53.616Z,8.70
2019-03-04T01:43:54.466Z,7.77
2019-03-04T01:45:55.299Z,6.97
2019-03-04T01:47:56.368Z,6.40
2019-03-04T01:49:57.203Z,5.70
2019-03-04T01:51:58.037Z,8.00
2019-03-04T01:53:58.888Z,7.47
2019-03-04T01:55:59.725Z,7.47
2019-03-04T01:58:00.577Z,6.87
2019-03-04T02:00:01.408Z,8.87
2019-03-04T02:02:02.271Z,6.07
2019-03-04T02:04:03.102Z,7.00
2019-03-04T02:06:03.957Z,8.43
2019-03-04T02:08:04.788Z,7.10
2019-03-04T02:10:05.645Z,6.70
2019-03-04T02:12:06.477Z,5.17
2019-03-04T02:14:07.304Z,6.97
2019-03-04T02:16:08.157Z,8.40
2019-03-04T02:18:09.001Z,6.97
2019-03-04T02:20:10.095Z,8.67
2019-03-04T02:22:10.936Z,7.33
2019-03-04T02:24:11.789Z,6.77
2019-03-04T02:26:12.624Z,7.87
2019-03-04T02:28:13.461Z,7.30
2019-03-04T02:30:14.593Z,6.23
2019-03-04T02:32:15.449Z,10.30
2019-03-04T02:34:16.304Z,6.83
2019-03-04T02:36:17.151Z,6.77
2019-03-04T02:38:18.005Z,5.37
2019-03-04T02:40:18.838Z,6.67
2019-03-04T02:42:19.690Z,9.13
2019-03-04T02:44:20.518Z,7.30
2019-03-04T02:46:21.372Z,7.73
2019-03-04T02:48:22.225Z,9.47
2019-03-04T02:50:23.064Z,8.17
2019-03-04T02:52:23.915Z,8.20
2019-03-04T02:54:24.754Z,9.37
2019-03-04T02:56:25.581Z,8.60
2019-03-04T02:58:26.437Z,7.57
2019-03-04T03:00:27.369Z,6.73
2019-03-04T03:02:28.217Z,5.73
2019-03-04T03:04:29.072Z,7.83
2019-03-04T03:06:29.905Z,6.40
2019-03-04T03:08:30.774Z,6.67
2019-03-04T03:10:31.790Z,7.17
2019-03-04T03:12:32.626Z,7.13
2019-03-04T03:14:33.493Z,6.80
2019-03-04T03:16:34.312Z,7.77
2019-03-04T03:18:35.158Z,8.50
2019-03-04T03:20:36.021Z,7.97
2019-03-04T03:22:36.841Z,7.03
2019-03-04T03:24:37.694Z,11.60
2019-03-04T03:26:38.539Z,10.50
2019-03-04T03:28:39.372Z,7.43
2019-03-04T03:30:40.219Z,6.80
2019-03-04T03:32:41.050Z,7.70
2019-03-04T03:34:41.910Z,7.67
2019-03-04T03:36:42.739Z,7.07
2019-03-04T03:38:43.601Z,8.10
2019-03-04T03:40:44.453Z,5.87
2019-03-04T03:42:45.313Z,6.17
2019-03-04T03:44:46.397Z,7.70
2019-03-04T03:46:47.257Z,6.87
2019-03-04T03:48:48.094Z,7.37
2019-03-04T03:50:49.182Z,7.03
2019-03-04T03:52:50.023Z,9.50
2019-03-04T03:54:50.865Z,6.37
2019-03-04T03:56:51.965Z,6.13
2019-03-04T03:58:52.821Z,7.33
2019-03-04T04:00:53.679Z,5.93
2019-03-04T04:02:54.538Z,8.90
2019-03-04T04:04:55.389Z,6.97
2019-03-04T04:06:56.234Z,7.23
2019-03-04T04:08:57.062Z,8.00
2019-03-04T04:10:57.922Z,6.27
2019-03-04T04:12:58.752Z,7.13
2019-03-04T04:14:59.841Z,6.83
2019-03-04T04:17:00.692Z,6.23
2019-03-04T04:19:01.569Z,7.33
2019-03-04T04:21:02.414Z,6.27
2019-03-04T04:23:03.282Z,8.03
2019-03-04T04:25:04.352Z,10.97
2019-03-04T04:27:05.207Z,7.43
2019-03-04T04:29:12.569Z,8.30
2019-03-04T04:31:13.413Z,10.07
2019-03-04T04:33:14.264Z,8.03
2019-03-04T04:35:15.098Z,9.70
2019-03-04T04:37:16.204Z,8.77
2019-03-04T04:39:17.052Z,8.17
2019-03-04T04:41:18.146Z,7.73
2019-03-04T04:43:19.009Z,7.60
2019-03-04T04:45:19.860Z,7.17
2019-03-04T04:47:20.693Z,6.87
2019-03-04T04:49:21.539Z,8.17
2019-03-04T04:51:22.373Z,7.40
2019-03-04T04:53:23.225Z,7.80
2019-03-04T04:55:24.081Z,8.17
2019-03-04T04:57:25.164Z,8.80
2019-03-04T04:59:26.016Z,6.40
2019-03-04T05:01:27.108Z,8.57
2019-03-04T05:03:27.961Z,7.47
2019-03-04T05:05:28.801Z,7.10
2019-03-04T05:07:29.646Z,7.27
2019-03-04T05:09:30.482Z,8.20
2019-03-04T05:11:31.565Z,8.83
2019-03-04T05:13:32.423Z,7.07
2019-03-04T05:15:33.280Z,5.97
2019-03-04T05:17:34.116Z,11.40
2019-03-04T05:19:34.947Z,6.07
2019-03-04T05:21:35.803Z,8.47
2019-03-04T05:23:36.768Z,7.40
2019-03-04T05:25:37.672Z,8.33
2019-03-04T05:27:38.545Z,6.13
2019-03-04T05:29:39.402Z,8.67
2019-03-04T05:31:40.233Z,7.87
2019-03-04T05:33:41.089Z,8.33
2019-03-04T05:35:41.916Z,10.73
2019-03-04T05:37:42.776Z,6.43
2019-03-04T05:39:43.618Z,6.53
2019-03-04T05:41:44.800Z,8.50
2019-03-04T05:43:45.661Z,9.90
2019-03-04T05:45:46.490Z,6.90
2019-03-04T05:47:47.342Z,9.93
2019-03-04T05:49:48.181Z,7.93
2019-03-04T05:51:49.041Z,9.33
2019-03-04T05:53:49.869Z,9.53
2019-03-04T05:55:50.700Z,8.67
2019-03-04T05:57:51.574Z,8.87
2019-03-04T05:59:52.654Z,14.43
2019-03-04T06:01:53.488Z,7.90
2019-03-04T06:03:54.326Z,9.77
2019-03-04T06:05:55.157Z,11.17
2019-03-04T06:07:58.781Z,8.27
2019-03-04T06:09:59.621Z,8.83
2019-03-04T06:12:00.473Z,8.33
2019-03-04T06:14:01.305Z,10.30
2019-03-04T06:16:02.133Z,9.20
2019-03-04T06:18:02.985Z,9.43
2019-03-04T06:20:04.081Z,10.00
2019-03-04T06:22:05.185Z,10.60
2019-03-04T06:24:06.268Z,12.63
2019-03-04T06:26:07.124Z,9.47
2019-03-04T06:28:07.962Z,13.30
2019-03-04T06:30:08.810Z,12.03
2019-03-04T06:32:09.641Z,10.20
2019-03-04T06:34:10.721Z,13.83
2019-03-04T06:36:11.581Z,9.23
2019-03-04T06:38:12.417Z,11.83
2019-03-04T06:40:13.253Z,9.37
2019-03-04T06:42:14.341Z,8.97
2019-03-04T06:44:15.177Z,11.07
2019-03-04T06:46:16.004Z,9.37
2019-03-04T06:48:16.868Z,11.80
2019-03-04T06:50:17.716Z,9.30
2019-03-04T06:52:18.983Z,11.90
2019-03-04T06:54:20.080Z,10.77
2019-03-04T06:56:20.921Z,11.80
2019-03-04T06:58:21.753Z,8.60
2019-03-04T07:00:22.608Z,10.97
2019-03-04T07:02:23.437Z,16.27
2019-03-04T07:04:24.291Z,12.17
2019-03-04T07:06:25.124Z,12.40
2019-03-04T07:08:26.225Z,17.33
2019-03-04T07:10:27.107Z,12.97
2019-03-04T07:12:27.948Z,20.53
2019-03-04T07:14:28.794Z,16.67
2019-03-04T07:16:31.943Z,11.03
2019-03-04T07:18:32.618Z,12.03
2019-03-04T07:20:33.723Z,13.30
2019-03-04T07:22:34.558Z,12.07
2019-03-04T07:24:35.398Z,9.40
2019-03-04T07:26:36.238Z,10.10
2019-03-04T07:28:37.061Z,11.40
2019-03-04T07:30:37.913Z,11.03
2019-03-04T07:32:38.749Z,10.93
2019-03-04T07:34:39.572Z,8.23
2019-03-04T07:36:40.428Z,7.83
2019-03-04T07:38:41.264Z,8.63
2019-03-04T07:40:42.105Z,7.87
2019-03-04T07:42:42.957Z,9.03
2019-03-04T07:44:43.833Z,6.60
2019-03-04T07:46:44.784Z,10.27
2019-03-04T07:48:45.616Z,10.00
2019-03-04T07:50:46.440Z,10.33
2019-03-04T07:52:47.285Z,7.93
2019-03-04T07:54:48.137Z,11.27
2019-03-04T07:56:49.226Z,7.60
2019-03-04T07:58:50.080Z,8.57
2019-03-04T08:00:51.192Z,10.33
2019-03-04T08:02:52.066Z,9.93
2019-03-04T08:04:52.903Z,7.07
2019-03-04T08:06:54.011Z,7.70
2019-03-04T08:08:55.113Z,6.40
2019-03-04T08:10:56.769Z,4.83
2019-03-04T08:12:57.621Z,6.03
2019-03-04T08:14:58.463Z,6.07
2019-03-04T08:16:59.301Z,8.17
2019-03-04T08:19:00.396Z,3.90
2019-03-04T08:21:01.241Z,7.60
2019-03-04T08:23:02.073Z,4.43
2019-03-04T08:25:02.924Z,8.47
2019-03-04T08:27:04.113Z,3.13
2019-03-04T08:29:04.960Z,22.90
2019-03-04T08:31:05.804Z,6.03
2019-03-04T08:33:06.659Z,3.13
2019-03-04T08:35:07.489Z,5.33
2019-03-04T08:37:08.352Z,4.90
2019-03-04T08:39:09.189Z,5.23
2019-03-04T08:41:10.044Z,5.17
2019-03-04T08:43:10.911Z,5.10
2019-03-04T08:45:11.992Z,4.37
2019-03-04T08:47:12.840Z,6.63
2019-03-04T08:49:13.672Z,6.07
2019-03-04T08:51:14.533Z,3.33
2019-03-04T08:53:15.389Z,3.57
2019-03-04T08:55:16.210Z,6.63
2019-03-04T08:57:17.076Z,4.73
2019-03-04T08:59:17.908Z,10.37
2019-03-04T09:01:18.757Z,4.47
2019-03-04T09:03:19.593Z,5.77
2019-03-04T09:05:20.425Z,4.47
2019-03-04T09:07:21.292Z,4.27
2019-03-04T09:09:22.121Z,2.57
2019-03-04T09:11:22.961Z,2.20
2019-03-04T09:13:24.073Z,2.50
2019-03-04T09:15:24.908Z,2.27
2019-03-04T09:17:25.775Z,3.53
2019-03-04T09:19:26.972Z,2.40
2019-03-04T09:21:27.812Z,2.93
2019-03-04T09:23:28.664Z,3.90
2019-03-04T09:25:30.646Z,2.33
2019-03-04T09:27:31.738Z,2.70
2019-03-04T09:29:32.868Z,1.53
2019-03-04T09:31:33.729Z,2.67
2019-03-04T09:33:34.570Z,1.40
2019-03-04T09:35:35.414Z,1.17
2019-03-04T09:37:36.505Z,1.30
2019-03-04T09:39:37.375Z,1.43
2019-03-04T09:41:38.204Z,2.50
2019-03-04T09:43:39.054Z,1.60
2019-03-04T09:45:40.152Z,1.53
2019-03-04T09:47:41.000Z,2.23
2019-03-04T09:49:41.833Z,1.70
2019-03-04T09:51:42.688Z,1.53
2019-03-04T09:53:43.781Z,1.63
2019-03-04T09:55:44.637Z,1.77
2019-03-04T09:57:45.473Z,1.40
2019-03-04T09:59:47.047Z,2.17
2019-03-04T10:01:48.188Z,1.50
2019-03-04T10:03:49.080Z,1.40
2019-03-04T10:05:49.917Z,3.53
2019-03-04T10:07:50.772Z,1.67
2019-03-04T10:09:51.628Z,3.63
2019-03-04T10:11:52.504Z,2.13
2019-03-04T10:13:53.349Z,1.40
2019-03-04T10:15:54.185Z,1.53
2019-03-04T10:17:55.037Z,1.50
2019-03-04T10:19:56.108Z,1.63
2019-03-04T10:21:56.951Z,1.47
2019-03-04T10:23:57.801Z,1.80
2019-03-04T10:25:58.672Z,1.93
2019-03-04T10:27:59.533Z,2.10
2019-03-04T10:30:00.392Z,1.67
2019-03-04T10:32:01.220Z,1.93
2019-03-04T10:34:02.312Z,1.50
2019-03-04T10:36:03.157Z,1.47
2019-03-04T10:38:04.007Z,2.30
2019-03-04T10:40:04.852Z,1.60
2019-03-04T10:42:05.737Z,3.97
2019-03-04T10:44:06.584Z,5.00
2019-03-04T10:46:07.413Z,1.97
2019-03-04T10:48:08.268Z,3.00
2019-03-04T10:50:09.134Z,5.27
2019-03-04T10:52:09.964Z,1.67
2019-03-04T10:54:10.821Z,2.10
2019-03-04T10:56:11.669Z,2.30
2019-03-04T10:58:12.508Z,2.97
2019-03-04T11:00:13.340Z,2.70
2019-03-04T11:02:14.449Z,1.97
2019-03-04T11:04:15.296Z,1.63
2019-03-04T11:06:16.378Z,3.70
2019-03-04T11:08:17.250Z,3.03
2019-03-04T11:10:18.105Z,2.43
2019-03-04T11:12:19.217Z,2.30
2019-03-04T11:14:20.332Z,2.33
2019-03-04T11:16:21.209Z,2.80
2019-03-04T11:18:22.162Z,2.30
2019-03-04T11:20:22.980Z,3.30
2019-03-04T11:22:24.166Z,3.30
2019-03-04T11:24:25.034Z,3.60
2019-03-04T11:26:26.112Z,4.13
2019-03-04T11:28:27.054Z,3.83
2019-03-04T11:30:30.485Z,4.20
2019-03-04T11:32:31.320Z,4.20
2019-03-04T11:34:32.161Z,3.93
2019-03-04T11:36:33.004Z,3.23
2019-03-04T11:38:34.188Z,4.40
2019-03-04T11:40:40.021Z,3.00
2019-03-04T11:42:40.854Z,3.20
2019-03-04T11:44:41.695Z,4.90
2019-03-04T11:46:42.548Z,3.57
2019-03-04T11:48:43.401Z,4.20
2019-03-04T11:50:44.241Z,2.97
2019-03-04T11:52:45.081Z,4.27
2019-03-04T11:54:45.917Z,3.03
2019-03-04T11:56:46.781Z,5.90
2019-03-04T11:58:47.632Z,4.70
2019-03-04T12:01:08.141Z,4.63
2019-03-04T12:03:08.986Z,4.17
2019-03-04T12:05:09.821Z,3.60
2019-03-04T12:07:10.676Z,3.60
2019-03-04T12:09:15.569Z,6.70
2019-03-04T12:11:16.649Z,4.93
2019-03-04T12:13:17.720Z,4.77
2019-03-04T12:15:18.612Z,3.80
2019-03-04T12:17:19.529Z,5.37
2019-03-04T12:19:20.389Z,4.13
2019-03-04T12:21:21.220Z,5.37
2019-03-04T12:23:22.076Z,4.23
2019-03-04T12:25:23.174Z,5.87
2019-03-04T12:27:24.032Z,5.43
2019-03-04T12:29:24.864Z,6.30
2019-03-04T12:31:28.789Z,3.27
2019-03-04T12:33:29.621Z,5.60
2019-03-04T12:35:30.708Z,7.10
2019-03-04T12:37:31.568Z,3.57
2019-03-04T12:39:32.409Z,3.93
2019-03-04T12:41:33.235Z,4.03
2019-03-04T12:43:34.101Z,3.43
2019-03-04T12:45:35.056Z,3.03
2019-03-04T12:47:35.888Z,4.93
2019-03-04T12:49:36.723Z,2.87
2019-03-04T12:51:37.569Z,5.07
2019-03-04T12:53:38.402Z,9.13
2019-03-04T12:55:39.245Z,6.47
2019-03-04T12:57:40.093Z,4.77
2019-03-04T12:59:40.942Z,3.13
2019-03-04T13:01:41.776Z,6.00
2019-03-04T13:03:42.635Z,7.47
2019-03-04T13:05:43.464Z,3.97
2019-03-04T13:07:44.584Z,5.60
2019-03-04T13:09:45.530Z,5.33
2019-03-04T13:11:46.609Z,4.20
2019-03-04T13:13:47.442Z,4.50
2019-03-04T13:15:48.279Z,5.73
2019-03-04T13:17:49.128Z,3.83
2019-03-04T13:19:49.957Z,5.10
2019-03-04T13:21:50.816Z,5.73
2019-03-04T13:23:51.648Z,4.47
2019-03-04T13:25:52.494Z,6.10
2019-03-04T13:27:53.353Z,5.10
2019-03-04T13:29:54.184Z,5.33
2019-03-04T13:31:55.020Z,4.33
2019-03-04T13:33:55.897Z,4.53
2019-03-04T13:35:56.757Z,6.93
2019-03-04T13:37:57.592Z,5.17
2019-03-04T13:39:58.450Z,5.43
2019-03-04T13:41:59.305Z,5.20
2019-03-04T13:44:00.170Z,3.70
2019-03-04T13:46:01.004Z,2.87
2019-03-04T13:48:01.849Z,6.00
2019-03-04T13:50:02.704Z,4.90
2019-03-04T13:52:03.743Z,4.13
2019-03-04T13:54:04.846Z,3.03
2019-03-04T13:56:05.676Z,5.80
2019-03-04T13:58:06.620Z,3.63
2019-03-04T14:00:07.761Z,5.63
2019-03-04T14:02:08.848Z,6.30
2019-03-04T14:04:09.713Z,5.13
2019-03-04T14:06:10.569Z,4.20
2019-03-04T14:08:11.400Z,6.20
2019-03-04T14:10:12.241Z,3.67
2019-03-04T14:12:13.344Z,4.37
2019-03-04T14:14:14.177Z,6.80
2019-03-04T14:16:15.034Z,4.03
2019-03-04T14:18:15.872Z,5.17
2019-03-04T14:20:16.707Z,3.60
2019-03-04T14:22:17.545Z,6.33
2019-03-04T14:24:18.401Z,4.13
2019-03-04T14:26:19.241Z,3.77
2019-03-04T14:28:20.099Z,3.30
2019-03-04T14:30:20.944Z,4.97
2019-03-04T14:32:21.792Z,5.53
2019-03-04T14:34:22.621Z,2.50
2019-03-04T14:36:23.749Z,3.30
2019-03-04T14:38:24.838Z,2.57
2019-03-04T14:40:25.917Z,6.30
2019-03-04T14:42:26.876Z,5.73
2019-03-04T14:44:27.709Z,2.93
2019-03-04T14:46:28.561Z,7.07
2019-03-04T14:48:29.397Z,5.03
2019-03-04T14:50:30.229Z,3.80
2019-03-04T14:52:31.085Z,5.77
2019-03-04T14:54:31.925Z,4.80
2019-03-04T14:56:32.778Z,3.57
2019-03-04T14:58:33.884Z,3.87
2019-03-04T15:00:36.472Z,10.33
2019-03-04T15:02:37.349Z,5.40
2019-03-04T15:04:38.288Z,3.87
2019-03-04T15:06:39.429Z,3.67
2019-03-04T15:08:40.692Z,3.17
2019-03-04T15:10:41.792Z,3.77
2019-03-04T15:12:42.648Z,21.53
2019-03-04T15:14:43.624Z,4.00
2019-03-04T15:16:44.745Z,4.87
2019-03-04T15:18:45.660Z,3.33
2019-03-04T15:20:46.493Z,3.33
2019-03-04T15:22:47.341Z,6.87
2019-03-04T15:24:48.428Z,4.43
2019-03-04T15:26:49.289Z,3.27
2019-03-04T15:28:50.148Z,4.37
2019-03-04T15:30:50.988Z,3.17
2019-03-04T15:32:51.856Z,3.83
2019-03-04T15:34:52.746Z,5.13
2019-03-04T15:36:53.588Z,11.00
2019-03-04T15:38:54.446Z,4.30
2019-03-04T15:40:55.300Z,2.43
2019-03-04T15:42:56.320Z,3.00
2019-03-04T15:44:57.188Z,3.53
2019-03-04T15:46:58.240Z,4.47
2019-03-04T15:48:59.113Z,3.67
2019-03-04T15:51:00.229Z,6.10
2019-03-04T15:53:01.073Z,4.97
2019-03-04T15:55:01.926Z,5.50
2019-03-04T15:57:03.108Z,5.40
2019-03-04T15:59:04.516Z,3.57
2019-03-04T16:01:05.537Z,4.77
2019-03-04T16:03:06.613Z,6.17
2019-03-04T16:05:07.552Z,4.10
2019-03-04T16:07:10.648Z,6.07
2019-03-04T16:09:11.744Z,3.90
2019-03-04T16:11:12.580Z,3.77
2019-03-04T16:13:15.297Z,3.87
2019-03-04T16:15:16.167Z,6.87
2019-03-04T16:17:17.013Z,5.50
2019-03-04T16:19:17.856Z,4.03
2019-03-04T16:21:18.694Z,7.80
2019-03-04T16:23:19.557Z,4.63
2019-03-04T16:25:20.404Z,3.53
2019-03-04T16:27:21.245Z,4.53
2019-03-04T16:29:22.099Z,4.97
2019-03-04T16:31:23.177Z,6.03
2019-03-04T16:33:24.032Z,3.83
2019-03-04T16:35:24.888Z,4.63
2019-03-04T16:37:25.968Z,4.57
2019-03-04T16:39:26.828Z,3.67
2019-03-04T16:41:27.665Z,3.53
2019-03-04T16:43:28.541Z,4.13
2019-03-04T16:45:29.372Z,4.93
2019-03-04T16:47:30.228Z,2.73
2019-03-04T16:49:31.060Z,4.77
2019-03-04T16:51:32.164Z,2.67
2019-03-04T16:53:33.012Z,3.23
2019-03-04T16:55:33.845Z,2.70
2019-03-04T16:57:34.692Z,3.00
2019-03-04T16:59:35.813Z,1.40
2019-03-04T17:01:36.679Z,1.40
2019-03-04T17:03:37.507Z,4.17
2019-03-04T17:05:38.341Z,2.17
2019-03-04T17:07:39.196Z,1.57
2019-03-04T17:09:40.033Z,2.30
2019-03-04T17:11:40.885Z,1.63
2019-03-04T17:13:41.949Z,1.33
2019-03-04T17:15:43.042Z,1.20
2019-03-04T17:17:43.891Z,2.20
2019-03-04T17:19:44.744Z,1.10
2019-03-04T17:21:45.818Z,1.80
2019-03-04T17:23:46.885Z,1.60
2019-03-04T17:25:47.729Z,1.83
2019-03-04T17:27:48.845Z,2.80
2019-03-04T17:29:49.713Z,2.07
2019-03-04T17:31:50.544Z,1.20
2019-03-04T17:33:51.384Z,1.50
2019-03-04T17:35:52.252Z,2.33
2019-03-04T17:37:53.076Z,1.87
2019-03-04T17:39:53.908Z,3.50
2019-03-04T17:41:55.020Z,2.10
2019-03-04T17:43:55.892Z,1.60
2019-03-04T17:45:56.892Z,3.70
2019-03-04T17:47:57.770Z,2.57
2019-03-04T17:49:58.618Z,4.07
2019-03-04T17:51:59.465Z,2.50
2019-03-04T17:54:00.552Z,2.33
2019-03-04T17:56:01.632Z,4.13
2019-03-04T17:58:02.498Z,2.73
2019-03-04T18:00:03.424Z,5.67
2019-03-04T18:02:04.509Z,2.20
2019-03-04T18:04:05.359Z,2.20
2019-03-04T18:06:06.208Z,2.37
2019-03-04T18:08:07.381Z,2.07
2019-03-04T18:10:08.241Z,2.77
2019-03-04T18:12:10.406Z,2.23
2019-03-04T18:14:11.264Z,2.50
2019-03-04T18:16:12.681Z,1.80
2019-03-04T18:18:13.886Z,2.20
2019-03-04T18:20:14.758Z,2.67
2019-03-04T18:22:15.710Z,2.17
2019-03-04T18:24:16.536Z,2.53
2019-03-04T18:26:17.380Z,2.17
2019-03-04T18:28:18.483Z,3.07
2019-03-04T18:30:19.333Z,2.87
2019-03-04T18:32:20.185Z,2.07
2019-03-04T18:34:21.045Z,1.90
2019-03-04T18:36:21.904Z,2.73
2019-03-04T18:38:22.780Z,3.40
2019-03-04T18:40:23.620Z,3.03
2019-03-04T18:42:24.460Z,2.23
2019-03-04T18:44:25.287Z,3.40
2019-03-04T18:46:26.124Z,1.90
2019-03-04T18:48:27.061Z,2.60
2019-03-04T18:50:27.890Z,3.17
2019-03-04T18:52:28.740Z,3.47
2019-03-04T18:54:29.574Z,2.30
2019-03-04T18:56:30.405Z,1.73
2019-03-04T18:58:31.258Z,2.73
2019-03-04T19:00:32.375Z,1.87
2019-03-04T19:02:33.232Z,1.60
2019-03-04T19:04:34.433Z,3.60
2019-03-04T19:06:35.373Z,1.80
2019-03-04T19:08:36.196Z,2.13
2019-03-04T19:10:37.052Z,1.80
2019-03-04T19:12:38.244Z,2.40
2019-03-04T19:14:39.088Z,1.83
2019-03-04T19:16:39.959Z,2.07
2019-03-04T19:18:40.782Z,2.47
2019-03-04T19:20:41.921Z,3.20
2019-03-04T19:22:42.752Z,2.30
2019-03-04T19:24:43.856Z,3.30
2019-03-04T19:26:44.718Z,2.53
2019-03-04T19:28:45.572Z,2.77
2019-03-04T19:30:46.415Z,2.30
2019-03-04T19:32:47.249Z,3.03
2019-03-04T19:34:48.104Z,2.33
2019-03-04T19:36:48.948Z,2.97
2019-03-04T19:38:49.821Z,2.77
2019-03-04T19:40:50.649Z,3.10
2019-03-04T19:42:51.486Z,2.43
2019-03-04T19:44:52.625Z,2.87
2019-03-04T19:46:53.457Z,1.77
2019-03-04T19:48:54.291Z,2.90
2019-03-04T19:50:55.136Z,2.53
2019-03-04T19:52:56.081Z,2.37
2019-03-04T19:54:56.917Z,3.03
2019-03-04T19:56:57.762Z,2.40
2019-03-04T19:58:58.609Z,2.07
2019-03-04T20:00:59.987Z,3.03
2019-03-04T20:03:00.842Z,3.53
2019-03-04T20:05:01.673Z,4.10
2019-03-04T20:07:02.791Z,4.40
2019-03-04T20:09:04.726Z,5.57
2019-03-04T20:11:05.628Z,2.90
2019-03-04T20:13:06.457Z,3.87
2019-03-04T20:15:07.287Z,2.40
2019-03-04T20:17:08.140Z,2.20
2019-03-04T20:19:09.318Z,2.30
2019-03-04T20:21:10.283Z,2.53
2019-03-04T20:23:11.130Z,2.37
2019-03-04T20:25:12.509Z,2.77
2019-03-04T20:27:13.521Z,2.17
2019-03-04T20:29:14.352Z,2.30
2019-03-04T20:31:15.188Z,1.97
2019-03-04T20:33:16.042Z,2.00
2019-03-04T20:35:16.880Z,2.77
2019-03-04T20:37:18.088Z,2.37
2019-03-04T20:39:19.234Z,2.07
2019-03-04T20:41:20.151Z,1.60
2019-03-04T20:43:21.288Z,1.70
2019-03-04T20:45:23.067Z,1.70
2019-03-04T20:47:23.909Z,1.60
2019-03-04T20:49:24.764Z,1.70
2019-03-04T20:51:25.617Z,2.27
2019-03-04T20:53:26.452Z,1.57
2019-03-04T20:55:27.532Z,1.70
2019-03-04T20:57:28.385Z,1.60
2019-03-04T20:59:29.215Z,1.73
2019-03-04T21:01:30.055Z,1.40
2019-03-04T21:03:34.926Z,1.40
2019-03-04T21:05:34.415Z,1.70
2019-03-04T21:07:35.489Z,1.87
2019-03-04T21:09:36.345Z,1.97
2019-03-04T21:11:37.177Z,2.13
2019-03-04T21:13:38.026Z,2.30
2019-03-04T21:15:39.348Z,2.20
2019-03-04T21:17:40.208Z,1.87
2019-03-04T21:19:41.300Z,1.90
2019-03-04T21:21:42.138Z,2.10
2019-03-04T21:23:43.084Z,2.00
2019-03-04T21:25:43.923Z,2.30
2019-03-04T21:27:44.752Z,2.17
2019-03-04T21:29:45.618Z,2.20
2019-03-04T21:31:46.478Z,2.10
2019-03-04T21:33:47.316Z,2.10
2019-03-04T21:35:48.251Z,2.07
2019-03-04T21:37:49.161Z,2.10
2019-03-04T21:39:50.349Z,2.27
2019-03-04T21:41:51.235Z,3.03
2019-03-04T21:43:52.066Z,2.27
2019-03-04T21:45:52.896Z,3.83
2019-03-04T21:47:53.849Z,2.30
2019-03-04T21:49:54.717Z,2.20
2019-03-04T21:51:55.571Z,2.43
2019-03-04T21:53:56.484Z,2.80
2019-03-04T21:55:57.321Z,2.97
2019-03-04T21:57:58.169Z,2.50
2019-03-04T21:59:59.008Z,2.30
2019-03-04T22:01:59.832Z,2.10
2019-03-04T22:04:00.687Z,2.17
2019-03-04T22:06:01.860Z,2.10
2019-03-04T22:08:02.702Z,2.37
2019-03-04T22:10:03.545Z,2.20
2019-03-04T22:12:04.396Z,2.03
2019-03-04T22:14:05.252Z,2.83
2019-03-04T22:16:06.449Z,2.37
2019-03-04T22:18:07.304Z,2.40
2019-03-04T22:20:08.414Z,2.70
2019-03-04T22:22:09.252Z,1.80
2019-03-04T22:24:10.113Z,2.03
2019-03-04T22:26:10.952Z,2.40
2019-03-04T22:28:11.798Z,2.40
2019-03-04T22:30:12.637Z,2.10
2019-03-04T22:32:13.479Z,2.20
2019-03-04T22:34:14.330Z,1.80
2019-03-04T22:36:16.097Z,1.90
2019-03-04T22:38:16.930Z,1.90
2019-03-04T22:40:17.779Z,3.07
2019-03-04T22:42:18.628Z,1.97
2019-03-04T22:44:19.566Z,2.20
2019-03-04T22:46:20.403Z,1.80
2019-03-04T22:48:21.444Z,2.00
2019-03-04T22:50:22.408Z,2.20
2019-03-04T22:52:23.263Z,1.73
2019-03-04T22:54:24.079Z,1.90
2019-03-04T22:56:24.958Z,1.63
2019-03-04T22:58:28.994Z,2.93
2019-03-04T23:00:29.507Z,2.67
2019-03-04T23:02:30.366Z,1.70
2019-03-04T23:04:31.188Z,1.90
2019-03-04T23:06:32.037Z,2.10
2019-03-04T23:08:32.896Z,2.43
2019-03-04T23:10:33.740Z,1.80
2019-03-04T23:12:34.605Z,2.63
2019-03-04T23:14:35.428Z,1.83
2019-03-04T23:16:36.281Z,2.13
2019-03-04T23:18:37.493Z,4.30
2019-03-04T23:20:38.329Z,2.27
2019-03-04T23:22:39.176Z,2.10
2019-03-04T23:24:40.001Z,1.70
2019-03-04T23:26:41.166Z,1.90
2019-03-04T23:28:41.997Z,2.47
2019-03-04T23:30:42.820Z,2.00
2019-03-04T23:32:43.968Z,2.07
2019-03-04T23:34:44.804Z,2.10
2019-03-04T23:36:45.908Z,2.13
2019-03-04T23:38:46.769Z,2.97
2019-03-04T23:40:47.608Z,2.07
2019-03-04T23:42:48.436Z,1.97
2019-03-04T23:44:49.550Z,2.57
2019-03-04T23:46:50.411Z,2.17
2019-03-04T23:48:51.256Z,1.63
2019-03-04T23:50:52.084Z,2.50
2019-03-04T23:52:52.922Z,1.50
2019-03-04T23:54:53.772Z,1.77
2019-03-04T23:56:54.630Z,1.80
2019-03-04T23:58:55.460Z,2.43
